sensor_id;sensor_type;location;lat;lon;timestamp;P1;durP1;ratioP1;P2;durP2;ratioP2
53483;SDS011;75581;50.088;19.966;2024-02-26T00:00:29;39.20;;;21.80;;
53483;SDS011;75581;50.088;19.966;2024-02-26T00:03:18;38.10;;;20.20;;
53483;SDS011;75581;50.088;19.966;2024-02-26T00:05:48;37.30;;;19.00;;
53483;SDS011;75581;50.088;19.966;2024-02-26T00:08:17;40.50;;;20.70;;
53483;SDS011;75581;50.088;19.966;2024-02-26T00:10:46;37.90;;;20.50;;
53483;SDS011;75581;50.088;19.966;2024-02-26T00:13:15;39.00;;;21.20;;
53483;SDS011;75581;50.088;19.966;2024-02-26T00:15:44;42.90;;;21.40;;
53483;SDS011;75581;50.088;19.966;2024-02-26T00:18:13;39.90;;;21.50;;
53483;SDS011;75581;50.088;19.966;2024-02-26T00:20:42;36.90;;;20.70;;
53483;SDS011;75581;50.088;19.966;2024-02-26T00:23:14;38.30;;;20.40;;
53483;SDS011;75581;50.088;19.966;2024-02-26T00:25:44;36.50;;;20.60;;
53483;SDS011;75581;50.088;19.966;2024-02-26T00:28:13;38.90;;;20.30;;
53483;SDS011;75581;50.088;19.966;2024-02-26T00:30:42;38.90;;;20.10;;
53483;SDS011;75581;50.088;19.966;2024-02-26T00:33:11;37.50;;;22.00;;
53483;SDS011;75581;50.088;19.966;2024-02-26T00:35:40;45.20;;;22.40;;
53483;SDS011;75581;50.088;19.966;2024-02-26T00:38:09;45.70;;;21.70;;
53483;SDS011;75581;50.088;19.966;2024-02-26T00:40:38;37.50;;;20.30;;
53483;SDS011;75581;50.088;19.966;2024-02-26T00:43:08;38.00;;;21.20;;
53483;SDS011;75581;50.088;19.966;2024-02-26T00:45:37;40.20;;;21.40;;
53483;SDS011;75581;50.088;19.966;2024-02-26T00:48:06;40.30;;;21.40;;
53483;SDS011;75581;50.088;19.966;2024-02-26T00:50:36;40.10;;;22.40;;
53483;SDS011;75581;50.088;19.966;2024-02-26T00:53:05;37.90;;;21.80;;
53483;SDS011;75581;50.088;19.966;2024-02-26T00:55:34;37.50;;;20.60;;
53483;SDS011;75581;50.088;19.966;2024-02-26T00:58:03;37.60;;;21.00;;
53483;SDS011;75581;50.088;19.966;2024-02-26T01:00:32;39.80;;;20.30;;
53483;SDS011;75581;50.088;19.966;2024-02-26T01:03:01;35.90;;;19.00;;
53483;SDS011;75581;50.088;19.966;2024-02-26T01:05:32;38.50;;;20.50;;
53483;SDS011;75581;50.088;19.966;2024-02-26T01:08:01;37.60;;;20.30;;
53483;SDS011;75581;50.088;19.966;2024-02-26T01:10:30;36.10;;;21.10;;
53483;SDS011;75581;50.088;19.966;2024-02-26T01:13:00;35.80;;;20.70;;
53483;SDS011;75581;50.088;19.966;2024-02-26T01:15:29;37.00;;;21.00;;
53483;SDS011;75581;50.088;19.966;2024-02-26T01:17:58;40.80;;;21.00;;
53483;SDS011;75581;50.088;19.966;2024-02-26T01:20:27;42.90;;;21.90;;
53483;SDS011;75581;50.088;19.966;2024-02-26T01:22:56;44.40;;;22.90;;
53483;SDS011;75581;50.088;19.966;2024-02-26T01:25:25;35.00;;;19.30;;
53483;SDS011;75581;50.088;19.966;2024-02-26T01:27:54;32.60;;;18.80;;
53483;SDS011;75581;50.088;19.966;2024-02-26T01:30:23;34.30;;;18.70;;
53483;SDS011;75581;50.088;19.966;2024-02-26T01:32:52;34.20;;;18.10;;
53483;SDS011;75581;50.088;19.966;2024-02-26T01:35:22;32.10;;;18.40;;
53483;SDS011;75581;50.088;19.966;2024-02-26T01:37:51;33.40;;;18.70;;
53483;SDS011;75581;50.088;19.966;2024-02-26T01:40:20;30.10;;;17.00;;
53483;SDS011;75581;50.088;19.966;2024-02-26T01:42:49;33.30;;;17.10;;
53483;SDS011;75581;50.088;19.966;2024-02-26T01:45:22;33.20;;;18.40;;
53483;SDS011;75581;50.088;19.966;2024-02-26T01:47:54;32.70;;;18.10;;
53483;SDS011;75581;50.088;19.966;2024-02-26T01:50:24;33.60;;;19.60;;
53483;SDS011;75581;50.088;19.966;2024-02-26T01:52:53;34.60;;;19.10;;
53483;SDS011;75581;50.088;19.966;2024-02-26T01:55:23;36.50;;;19.40;;
53483;SDS011;75581;50.088;19.966;2024-02-26T01:57:53;37.40;;;19.70;;
53483;SDS011;75581;50.088;19.966;2024-02-26T02:00:22;33.40;;;19.00;;
53483;SDS011;75581;50.088;19.966;2024-02-26T02:02:52;34.60;;;19.80;;
53483;SDS011;75581;50.088;19.966;2024-02-26T02:05:23;34.40;;;19.00;;
53483;SDS011;75581;50.088;19.966;2024-02-26T02:07:54;32.20;;;18.10;;
53483;SDS011;75581;50.088;19.966;2024-02-26T02:10:24;31.40;;;18.70;;
53483;SDS011;75581;50.088;19.966;2024-02-26T02:12:54;39.60;;;20.40;;
53483;SDS011;75581;50.088;19.966;2024-02-26T02:15:23;37.60;;;19.50;;
53483;SDS011;75581;50.088;19.966;2024-02-26T02:17:52;34.70;;;20.20;;
53483;SDS011;75581;50.088;19.966;2024-02-26T02:20:26;35.40;;;20.60;;
53483;SDS011;75581;50.088;19.966;2024-02-26T02:23:01;33.90;;;19.50;;
53483;SDS011;75581;50.088;19.966;2024-02-26T02:25:31;37.60;;;21.40;;
53483;SDS011;75581;50.088;19.966;2024-02-26T02:28:00;38.70;;;21.40;;
53483;SDS011;75581;50.088;19.966;2024-02-26T02:30:30;37.10;;;20.50;;
53483;SDS011;75581;50.088;19.966;2024-02-26T02:33:01;37.60;;;21.00;;
53483;SDS011;75581;50.088;19.966;2024-02-26T02:35:30;37.20;;;21.10;;
53483;SDS011;75581;50.088;19.966;2024-02-26T02:37:59;40.90;;;22.50;;
53483;SDS011;75581;50.088;19.966;2024-02-26T02:40:28;40.10;;;21.20;;
53483;SDS011;75581;50.088;19.966;2024-02-26T02:42:57;39.30;;;21.30;;
53483;SDS011;75581;50.088;19.966;2024-02-26T02:45:27;36.80;;;20.50;;
53483;SDS011;75581;50.088;19.966;2024-02-26T02:47:57;38.40;;;20.60;;
53483;SDS011;75581;50.088;19.966;2024-02-26T02:50:26;37.90;;;21.40;;
53483;SDS011;75581;50.088;19.966;2024-02-26T02:52:57;37.90;;;21.20;;
53483;SDS011;75581;50.088;19.966;2024-02-26T02:55:26;40.30;;;20.70;;
53483;SDS011;75581;50.088;19.966;2024-02-26T02:57:56;42.20;;;21.40;;
53483;SDS011;75581;50.088;19.966;2024-02-26T03:00:25;38.20;;;21.10;;
53483;SDS011;75581;50.088;19.966;2024-02-26T03:02:54;40.70;;;21.00;;
53483;SDS011;75581;50.088;19.966;2024-02-26T03:05:23;37.60;;;21.00;;
53483;SDS011;75581;50.088;19.966;2024-02-26T03:07:52;35.50;;;20.90;;
53483;SDS011;75581;50.088;19.966;2024-02-26T03:10:21;33.80;;;19.20;;
53483;SDS011;75581;50.088;19.966;2024-02-26T03:12:50;34.30;;;19.00;;
53483;SDS011;75581;50.088;19.966;2024-02-26T03:15:19;35.30;;;19.80;;
53483;SDS011;75581;50.088;19.966;2024-02-26T03:17:48;36.00;;;19.60;;
53483;SDS011;75581;50.088;19.966;2024-02-26T03:20:17;33.20;;;19.40;;
53483;SDS011;75581;50.088;19.966;2024-02-26T03:22:48;33.00;;;18.00;;
53483;SDS011;75581;50.088;19.966;2024-02-26T03:25:16;34.80;;;18.60;;
53483;SDS011;75581;50.088;19.966;2024-02-26T03:27:45;33.40;;;18.20;;
53483;SDS011;75581;50.088;19.966;2024-02-26T03:30:14;30.40;;;18.60;;
53483;SDS011;75581;50.088;19.966;2024-02-26T03:32:43;34.70;;;18.80;;
53483;SDS011;75581;50.088;19.966;2024-02-26T03:35:13;36.00;;;20.60;;
53483;SDS011;75581;50.088;19.966;2024-02-26T03:37:42;37.80;;;20.40;;
53483;SDS011;75581;50.088;19.966;2024-02-26T03:40:11;34.60;;;19.90;;
53483;SDS011;75581;50.088;19.966;2024-02-26T03:42:42;34.00;;;18.30;;
53483;SDS011;75581;50.088;19.966;2024-02-26T03:45:12;30.90;;;18.00;;
53483;SDS011;75581;50.088;19.966;2024-02-26T03:47:41;33.60;;;20.30;;
53483;SDS011;75581;50.088;19.966;2024-02-26T03:50:10;34.20;;;20.30;;
53483;SDS011;75581;50.088;19.966;2024-02-26T03:52:39;37.60;;;21.60;;
53483;SDS011;75581;50.088;19.966;2024-02-26T03:55:08;37.50;;;20.50;;
53483;SDS011;75581;50.088;19.966;2024-02-26T03:57:38;35.60;;;19.50;;
53483;SDS011;75581;50.088;19.966;2024-02-26T04:00:07;33.40;;;19.10;;
53483;SDS011;75581;50.088;19.966;2024-02-26T04:02:40;34.70;;;18.60;;
53483;SDS011;75581;50.088;19.966;2024-02-26T04:05:09;32.60;;;19.70;;
53483;SDS011;75581;50.088;19.966;2024-02-26T04:07:40;35.20;;;20.20;;
53483;SDS011;75581;50.088;19.966;2024-02-26T04:10:10;35.90;;;19.80;;
53483;SDS011;75581;50.088;19.966;2024-02-26T04:12:40;36.10;;;20.40;;
53483;SDS011;75581;50.088;19.966;2024-02-26T04:15:10;36.70;;;20.10;;
53483;SDS011;75581;50.088;19.966;2024-02-26T04:17:39;39.00;;;21.30;;
53483;SDS011;75581;50.088;19.966;2024-02-26T04:20:12;42.00;;;21.90;;
53483;SDS011;75581;50.088;19.966;2024-02-26T04:22:43;43.00;;;21.30;;
53483;SDS011;75581;50.088;19.966;2024-02-26T04:25:13;37.70;;;21.70;;
53483;SDS011;75581;50.088;19.966;2024-02-26T04:27:42;45.10;;;22.40;;
53483;SDS011;75581;50.088;19.966;2024-02-26T04:30:11;40.90;;;21.70;;
53483;SDS011;75581;50.088;19.966;2024-02-26T04:32:40;36.70;;;21.40;;
53483;SDS011;75581;50.088;19.966;2024-02-26T04:35:09;41.90;;;23.20;;
53483;SDS011;75581;50.088;19.966;2024-02-26T04:37:39;40.00;;;23.20;;
53483;SDS011;75581;50.088;19.966;2024-02-26T04:40:09;35.80;;;21.30;;
53483;SDS011;75581;50.088;19.966;2024-02-26T04:42:38;40.70;;;23.20;;
53483;SDS011;75581;50.088;19.966;2024-02-26T04:45:08;39.40;;;21.70;;
53483;SDS011;75581;50.088;19.966;2024-02-26T04:47:37;42.00;;;22.90;;
53483;SDS011;75581;50.088;19.966;2024-02-26T04:50:06;40.20;;;22.50;;
53483;SDS011;75581;50.088;19.966;2024-02-26T04:52:36;47.90;;;23.70;;
53483;SDS011;75581;50.088;19.966;2024-02-26T04:55:05;43.00;;;23.00;;
53483;SDS011;75581;50.088;19.966;2024-02-26T04:57:35;36.60;;;21.70;;
53483;SDS011;75581;50.088;19.966;2024-02-26T05:00:04;43.30;;;22.30;;
53483;SDS011;75581;50.088;19.966;2024-02-26T05:02:34;43.10;;;23.70;;
53483;SDS011;75581;50.088;19.966;2024-02-26T05:05:06;43.00;;;23.90;;
53483;SDS011;75581;50.088;19.966;2024-02-26T05:07:40;44.00;;;23.80;;
53483;SDS011;75581;50.088;19.966;2024-02-26T05:10:13;42.80;;;24.60;;
53483;SDS011;75581;50.088;19.966;2024-02-26T05:12:42;39.80;;;23.10;;
53483;SDS011;75581;50.088;19.966;2024-02-26T05:15:11;38.60;;;22.70;;
53483;SDS011;75581;50.088;19.966;2024-02-26T05:17:44;43.50;;;23.10;;
53483;SDS011;75581;50.088;19.966;2024-02-26T05:20:13;42.00;;;23.80;;
53483;SDS011;75581;50.088;19.966;2024-02-26T05:22:42;40.20;;;21.00;;
53483;SDS011;75581;50.088;19.966;2024-02-26T05:25:11;40.00;;;22.70;;
53483;SDS011;75581;50.088;19.966;2024-02-26T05:27:43;38.10;;;22.20;;
53483;SDS011;75581;50.088;19.966;2024-02-26T05:30:13;40.50;;;22.10;;
53483;SDS011;75581;50.088;19.966;2024-02-26T05:32:42;38.60;;;20.60;;
53483;SDS011;75581;50.088;19.966;2024-02-26T05:35:11;40.20;;;22.00;;
53483;SDS011;75581;50.088;19.966;2024-02-26T05:37:40;40.00;;;22.60;;
53483;SDS011;75581;50.088;19.966;2024-02-26T05:40:10;39.80;;;21.50;;
53483;SDS011;75581;50.088;19.966;2024-02-26T05:42:39;37.20;;;21.50;;
53483;SDS011;75581;50.088;19.966;2024-02-26T05:45:08;45.30;;;23.50;;
53483;SDS011;75581;50.088;19.966;2024-02-26T05:47:37;42.50;;;23.70;;
53483;SDS011;75581;50.088;19.966;2024-02-26T05:50:11;47.60;;;24.10;;
53483;SDS011;75581;50.088;19.966;2024-02-26T05:52:41;41.80;;;23.20;;
53483;SDS011;75581;50.088;19.966;2024-02-26T05:55:10;45.70;;;23.70;;
53483;SDS011;75581;50.088;19.966;2024-02-26T05:57:39;42.20;;;22.60;;
53483;SDS011;75581;50.088;19.966;2024-02-26T06:00:08;38.30;;;23.30;;
53483;SDS011;75581;50.088;19.966;2024-02-26T06:02:42;35.90;;;21.60;;
53483;SDS011;75581;50.088;19.966;2024-02-26T06:05:11;47.50;;;25.20;;
53483;SDS011;75581;50.088;19.966;2024-02-26T06:07:40;39.00;;;22.70;;
53483;SDS011;75581;50.088;19.966;2024-02-26T06:10:10;40.50;;;23.50;;
53483;SDS011;75581;50.088;19.966;2024-02-26T06:12:39;42.80;;;22.80;;
53483;SDS011;75581;50.088;19.966;2024-02-26T06:15:09;44.30;;;24.90;;
53483;SDS011;75581;50.088;19.966;2024-02-26T06:17:39;46.30;;;24.80;;
53483;SDS011;75581;50.088;19.966;2024-02-26T06:20:08;47.30;;;25.90;;
53483;SDS011;75581;50.088;19.966;2024-02-26T06:22:41;54.20;;;26.10;;
53483;SDS011;75581;50.088;19.966;2024-02-26T06:25:10;47.60;;;25.10;;
53483;SDS011;75581;50.088;19.966;2024-02-26T06:27:39;52.80;;;25.60;;
53483;SDS011;75581;50.088;19.966;2024-02-26T06:30:08;44.90;;;24.30;;
53483;SDS011;75581;50.088;19.966;2024-02-26T06:32:39;49.80;;;26.20;;
53483;SDS011;75581;50.088;19.966;2024-02-26T06:35:09;52.20;;;27.00;;
53483;SDS011;75581;50.088;19.966;2024-02-26T06:37:40;49.50;;;26.30;;
53483;SDS011;75581;50.088;19.966;2024-02-26T06:40:09;48.90;;;24.70;;
53483;SDS011;75581;50.088;19.966;2024-02-26T06:42:38;47.20;;;25.30;;
53483;SDS011;75581;50.088;19.966;2024-02-26T06:45:08;49.90;;;25.60;;
53483;SDS011;75581;50.088;19.966;2024-02-26T06:47:37;56.70;;;26.60;;
53483;SDS011;75581;50.088;19.966;2024-02-26T06:50:06;54.60;;;26.20;;
53483;SDS011;75581;50.088;19.966;2024-02-26T06:52:36;45.10;;;25.10;;
53483;SDS011;75581;50.088;19.966;2024-02-26T06:55:05;41.00;;;22.80;;
53483;SDS011;75581;50.088;19.966;2024-02-26T06:57:36;50.70;;;24.60;;
53483;SDS011;75581;50.088;19.966;2024-02-26T07:00:05;56.40;;;25.90;;
53483;SDS011;75581;50.088;19.966;2024-02-26T07:02:35;46.00;;;23.20;;
53483;SDS011;75581;50.088;19.966;2024-02-26T07:05:07;46.50;;;22.90;;
53483;SDS011;75581;50.088;19.966;2024-02-26T07:07:36;38.10;;;21.30;;
53483;SDS011;75581;50.088;19.966;2024-02-26T07:10:05;45.10;;;21.80;;
53483;SDS011;75581;50.088;19.966;2024-02-26T07:12:35;41.80;;;20.60;;
53483;SDS011;75581;50.088;19.966;2024-02-26T07:15:04;38.20;;;20.00;;
53483;SDS011;75581;50.088;19.966;2024-02-26T07:17:36;41.40;;;19.50;;
53483;SDS011;75581;50.088;19.966;2024-02-26T07:20:06;44.90;;;20.90;;
53483;SDS011;75581;50.088;19.966;2024-02-26T07:22:37;37.20;;;19.80;;
53483;SDS011;75581;50.088;19.966;2024-02-26T07:25:06;34.10;;;19.60;;
53483;SDS011;75581;50.088;19.966;2024-02-26T07:27:37;39.90;;;19.50;;
53483;SDS011;75581;50.088;19.966;2024-02-26T07:30:06;36.20;;;19.20;;
53483;SDS011;75581;50.088;19.966;2024-02-26T07:32:37;36.60;;;18.30;;
53483;SDS011;75581;50.088;19.966;2024-02-26T07:35:06;40.10;;;19.30;;
53483;SDS011;75581;50.088;19.966;2024-02-26T07:37:36;36.20;;;18.00;;
53483;SDS011;75581;50.088;19.966;2024-02-26T07:40:05;41.10;;;19.80;;
53483;SDS011;75581;50.088;19.966;2024-02-26T07:42:37;33.50;;;17.10;;
53483;SDS011;75581;50.088;19.966;2024-02-26T07:45:06;38.30;;;18.10;;
53483;SDS011;75581;50.088;19.966;2024-02-26T07:47:35;36.60;;;17.50;;
53483;SDS011;75581;50.088;19.966;2024-02-26T07:50:07;31.00;;;16.90;;
53483;SDS011;75581;50.088;19.966;2024-02-26T07:52:37;29.30;;;15.80;;
53483;SDS011;75581;50.088;19.966;2024-02-26T07:55:07;37.00;;;17.30;;
53483;SDS011;75581;50.088;19.966;2024-02-26T07:57:36;34.70;;;16.20;;
53483;SDS011;75581;50.088;19.966;2024-02-26T08:00:06;32.80;;;15.70;;
53483;SDS011;75581;50.088;19.966;2024-02-26T08:02:37;34.20;;;16.10;;
53483;SDS011;75581;50.088;19.966;2024-02-26T08:05:07;29.00;;;14.60;;
53483;SDS011;75581;50.088;19.966;2024-02-26T08:07:36;29.60;;;13.80;;
53483;SDS011;75581;50.088;19.966;2024-02-26T08:10:07;24.10;;;13.80;;
53483;SDS011;75581;50.088;19.966;2024-02-26T08:12:37;22.30;;;12.00;;
53483;SDS011;75581;50.088;19.966;2024-02-26T08:15:06;26.50;;;13.10;;
53483;SDS011;75581;50.088;19.966;2024-02-26T08:17:36;23.80;;;13.10;;
53483;SDS011;75581;50.088;19.966;2024-02-26T08:20:06;35.50;;;14.00;;
53483;SDS011;75581;50.088;19.966;2024-02-26T08:22:35;24.00;;;12.00;;
53483;SDS011;75581;50.088;19.966;2024-02-26T08:25:06;27.80;;;13.10;;
53483;SDS011;75581;50.088;19.966;2024-02-26T08:27:37;25.30;;;12.00;;
53483;SDS011;75581;50.088;19.966;2024-02-26T08:30:07;18.50;;;10.80;;
53483;SDS011;75581;50.088;19.966;2024-02-26T08:32:36;21.60;;;11.20;;
53483;SDS011;75581;50.088;19.966;2024-02-26T08:35:06;24.00;;;10.70;;
53483;SDS011;75581;50.088;19.966;2024-02-26T08:37:35;22.70;;;10.80;;
53483;SDS011;75581;50.088;19.966;2024-02-26T08:40:05;22.20;;;9.80;;
53483;SDS011;75581;50.088;19.966;2024-02-26T08:42:38;17.10;;;9.60;;
53483;SDS011;75581;50.088;19.966;2024-02-26T08:45:08;10.40;;;7.80;;
53483;SDS011;75581;50.088;19.966;2024-02-26T08:47:37;15.70;;;7.70;;
53483;SDS011;75581;50.088;19.966;2024-02-26T08:50:07;15.10;;;7.90;;
53483;SDS011;75581;50.088;19.966;2024-02-26T08:52:38;11.30;;;6.80;;
53483;SDS011;75581;50.088;19.966;2024-02-26T08:55:08;12.70;;;7.10;;
53483;SDS011;75581;50.088;19.966;2024-02-26T08:57:37;12.40;;;7.20;;
53483;SDS011;75581;50.088;19.966;2024-02-26T09:00:07;12.30;;;7.00;;
53483;SDS011;75581;50.088;19.966;2024-02-26T09:02:37;16.80;;;7.20;;
53483;SDS011;75581;50.088;19.966;2024-02-26T09:05:11;20.10;;;6.80;;
53483;SDS011;75581;50.088;19.966;2024-02-26T09:07:40;16.20;;;7.60;;
53483;SDS011;75581;50.088;19.966;2024-02-26T09:10:09;15.30;;;7.00;;
53483;SDS011;75581;50.088;19.966;2024-02-26T09:12:39;10.30;;;6.50;;
53483;SDS011;75581;50.088;19.966;2024-02-26T09:15:08;12.80;;;7.50;;
53483;SDS011;75581;50.088;19.966;2024-02-26T09:17:38;10.90;;;6.60;;
53483;SDS011;75581;50.088;19.966;2024-02-26T09:20:07;16.50;;;6.50;;
53483;SDS011;75581;50.088;19.966;2024-02-26T09:22:37;16.70;;;7.20;;
53483;SDS011;75581;50.088;19.966;2024-02-26T09:25:07;11.90;;;7.10;;
53483;SDS011;75581;50.088;19.966;2024-02-26T09:27:36;14.10;;;7.40;;
53483;SDS011;75581;50.088;19.966;2024-02-26T09:30:13;10.80;;;6.70;;
53483;SDS011;75581;50.088;19.966;2024-02-26T09:32:45;11.60;;;7.40;;
53483;SDS011;75581;50.088;19.966;2024-02-26T09:35:15;12.90;;;6.90;;
53483;SDS011;75581;50.088;19.966;2024-02-26T09:37:44;9.10;;;5.50;;
53483;SDS011;75581;50.088;19.966;2024-02-26T09:40:13;8.20;;;4.80;;
53483;SDS011;75581;50.088;19.966;2024-02-26T09:42:45;13.60;;;6.10;;
53483;SDS011;75581;50.088;19.966;2024-02-26T09:45:18;10.00;;;6.40;;
53483;SDS011;75581;50.088;19.966;2024-02-26T09:47:48;11.40;;;6.50;;
53483;SDS011;75581;50.088;19.966;2024-02-26T09:50:20;11.40;;;7.00;;
53483;SDS011;75581;50.088;19.966;2024-02-26T09:52:51;13.10;;;7.00;;
53483;SDS011;75581;50.088;19.966;2024-02-26T09:55:22;10.80;;;6.20;;
53483;SDS011;75581;50.088;19.966;2024-02-26T09:57:52;10.60;;;6.30;;
53483;SDS011;75581;50.088;19.966;2024-02-26T10:00:22;9.40;;;6.10;;
53483;SDS011;75581;50.088;19.966;2024-02-26T10:02:51;9.30;;;6.70;;
53483;SDS011;75581;50.088;19.966;2024-02-26T10:05:21;9.20;;;6.30;;
53483;SDS011;75581;50.088;19.966;2024-02-26T10:07:52;15.20;;;7.00;;
53483;SDS011;75581;50.088;19.966;2024-02-26T10:10:24;14.30;;;6.70;;
53483;SDS011;75581;50.088;19.966;2024-02-26T10:12:55;9.00;;;6.20;;
53483;SDS011;75581;50.088;19.966;2024-02-26T10:15:25;10.40;;;5.90;;
53483;SDS011;75581;50.088;19.966;2024-02-26T10:17:54;10.50;;;6.10;;
53483;SDS011;75581;50.088;19.966;2024-02-26T10:20:24;10.30;;;5.40;;
53483;SDS011;75581;50.088;19.966;2024-02-26T10:22:54;7.90;;;5.50;;
53483;SDS011;75581;50.088;19.966;2024-02-26T10:25:23;8.90;;;4.70;;
53483;SDS011;75581;50.088;19.966;2024-02-26T10:27:52;11.70;;;4.40;;
53483;SDS011;75581;50.088;19.966;2024-02-26T10:30:22;8.60;;;4.30;;
53483;SDS011;75581;50.088;19.966;2024-02-26T10:32:51;9.10;;;3.70;;
53483;SDS011;75581;50.088;19.966;2024-02-26T10:35:21;5.90;;;3.90;;
53483;SDS011;75581;50.088;19.966;2024-02-26T10:37:51;5.20;;;3.70;;
53483;SDS011;75581;50.088;19.966;2024-02-26T10:40:21;7.50;;;3.40;;
53483;SDS011;75581;50.088;19.966;2024-02-26T10:42:50;9.00;;;3.40;;
53483;SDS011;75581;50.088;19.966;2024-02-26T10:45:19;7.80;;;3.10;;
53483;SDS011;75581;50.088;19.966;2024-02-26T10:47:48;7.30;;;3.20;;
53483;SDS011;75581;50.088;19.966;2024-02-26T10:50:17;5.40;;;2.50;;
53483;SDS011;75581;50.088;19.966;2024-02-26T10:52:48;6.60;;;2.50;;
53483;SDS011;75581;50.088;19.966;2024-02-26T10:55:18;7.60;;;2.40;;
53483;SDS011;75581;50.088;19.966;2024-02-26T10:57:50;3.90;;;1.70;;
53483;SDS011;75581;50.088;19.966;2024-02-26T11:00:21;2.50;;;1.70;;
53483;SDS011;75581;50.088;19.966;2024-02-26T11:02:50;3.90;;;2.00;;
53483;SDS011;75581;50.088;19.966;2024-02-26T11:05:20;3.30;;;2.10;;
53483;SDS011;75581;50.088;19.966;2024-02-26T11:07:50;7.90;;;2.40;;
53483;SDS011;75581;50.088;19.966;2024-02-26T11:10:21;2.80;;;1.60;;
53483;SDS011;75581;50.088;19.966;2024-02-26T11:12:51;5.20;;;2.20;;
53483;SDS011;75581;50.088;19.966;2024-02-26T11:15:22;5.60;;;2.20;;
53483;SDS011;75581;50.088;19.966;2024-02-26T11:17:53;2.80;;;1.80;;
53483;SDS011;75581;50.088;19.966;2024-02-26T11:20:24;3.00;;;2.40;;
53483;SDS011;75581;50.088;19.966;2024-02-26T11:22:57;3.30;;;2.20;;
53483;SDS011;75581;50.088;19.966;2024-02-26T11:25:26;4.20;;;1.80;;
53483;SDS011;75581;50.088;19.966;2024-02-26T11:27:56;3.50;;;2.10;;
53483;SDS011;75581;50.088;19.966;2024-02-26T11:30:31;3.00;;;2.00;;
53483;SDS011;75581;50.088;19.966;2024-02-26T11:33:04;3.80;;;2.00;;
53483;SDS011;75581;50.088;19.966;2024-02-26T11:35:36;5.20;;;2.70;;
53483;SDS011;75581;50.088;19.966;2024-02-26T11:38:06;3.50;;;1.80;;
53483;SDS011;75581;50.088;19.966;2024-02-26T11:40:39;3.00;;;1.80;;
53483;SDS011;75581;50.088;19.966;2024-02-26T11:43:09;5.80;;;1.90;;
53483;SDS011;75581;50.088;19.966;2024-02-26T11:48:14;4.20;;;1.60;;
53483;SDS011;75581;50.088;19.966;2024-02-26T11:50:49;3.10;;;1.70;;
53483;SDS011;75581;50.088;19.966;2024-02-26T11:59:00;2.10;;;1.50;;
53483;SDS011;75581;50.088;19.966;2024-02-26T12:04:14;2.40;;;1.40;;
53483;SDS011;75581;50.088;19.966;2024-02-26T12:12:05;1.30;;;1.00;;
53483;SDS011;75581;50.088;19.966;2024-02-26T12:14:40;1.60;;;1.30;;
53483;SDS011;75581;50.088;19.966;2024-02-26T12:17:22;3.00;;;1.60;;
53483;SDS011;75581;50.088;19.966;2024-02-26T12:19:52;3.10;;;1.70;;
53483;SDS011;75581;50.088;19.966;2024-02-26T12:22:22;4.00;;;1.80;;
53483;SDS011;75581;50.088;19.966;2024-02-26T12:24:59;2.30;;;1.60;;
53483;SDS011;75581;50.088;19.966;2024-02-26T12:27:31;2.50;;;2.00;;
53483;SDS011;75581;50.088;19.966;2024-02-26T12:30:04;3.40;;;1.70;;
53483;SDS011;75581;50.088;19.966;2024-02-26T12:32:35;2.70;;;1.90;;
53483;SDS011;75581;50.088;19.966;2024-02-26T12:35:05;3.90;;;1.50;;
53483;SDS011;75581;50.088;19.966;2024-02-26T12:37:35;3.00;;;2.10;;
53483;SDS011;75581;50.088;19.966;2024-02-26T12:40:10;2.80;;;1.70;;
53483;SDS011;75581;50.088;19.966;2024-02-26T12:42:39;4.10;;;2.20;;
53483;SDS011;75581;50.088;19.966;2024-02-26T12:45:10;3.00;;;2.20;;
53483;SDS011;75581;50.088;19.966;2024-02-26T12:47:42;2.90;;;2.00;;
53483;SDS011;75581;50.088;19.966;2024-02-26T12:50:12;2.30;;;1.90;;
53483;SDS011;75581;50.088;19.966;2024-02-26T12:52:43;2.50;;;1.90;;
53483;SDS011;75581;50.088;19.966;2024-02-26T12:55:14;3.00;;;2.20;;
53483;SDS011;75581;50.088;19.966;2024-02-26T12:57:45;5.40;;;2.20;;
53483;SDS011;75581;50.088;19.966;2024-02-26T13:00:19;3.40;;;2.20;;
53483;SDS011;75581;50.088;19.966;2024-02-26T13:02:52;3.90;;;2.30;;
53483;SDS011;75581;50.088;19.966;2024-02-26T13:05:24;4.80;;;2.40;;
53483;SDS011;75581;50.088;19.966;2024-02-26T13:07:53;3.70;;;2.00;;
53483;SDS011;75581;50.088;19.966;2024-02-26T13:10:22;2.50;;;1.90;;
53483;SDS011;75581;50.088;19.966;2024-02-26T13:12:54;3.70;;;2.30;;
53483;SDS011;75581;50.088;19.966;2024-02-26T13:15:23;4.00;;;2.10;;
53483;SDS011;75581;50.088;19.966;2024-02-26T13:17:52;3.20;;;2.10;;
53483;SDS011;75581;50.088;19.966;2024-02-26T13:20:25;4.10;;;2.30;;
53483;SDS011;75581;50.088;19.966;2024-02-26T13:23:03;4.60;;;2.10;;
53483;SDS011;75581;50.088;19.966;2024-02-26T13:25:34;3.00;;;2.20;;
53483;SDS011;75581;50.088;19.966;2024-02-26T13:28:22;4.60;;;2.50;;
53483;SDS011;75581;50.088;19.966;2024-02-26T13:30:53;3.10;;;2.40;;
53483;SDS011;75581;50.088;19.966;2024-02-26T13:33:26;4.50;;;3.10;;
53483;SDS011;75581;50.088;19.966;2024-02-26T13:35:56;5.20;;;3.40;;
53483;SDS011;75581;50.088;19.966;2024-02-26T13:38:27;4.90;;;2.70;;
53483;SDS011;75581;50.088;19.966;2024-02-26T13:40:56;3.80;;;3.30;;
53483;SDS011;75581;50.088;19.966;2024-02-26T13:43:25;4.70;;;3.80;;
53483;SDS011;75581;50.088;19.966;2024-02-26T13:45:55;4.50;;;3.40;;
53483;SDS011;75581;50.088;19.966;2024-02-26T13:48:24;4.80;;;4.30;;
53483;SDS011;75581;50.088;19.966;2024-02-26T13:50:54;5.00;;;3.90;;
53483;SDS011;75581;50.088;19.966;2024-02-26T13:53:23;8.10;;;4.70;;
53483;SDS011;75581;50.088;19.966;2024-02-26T13:55:52;4.80;;;4.10;;
53483;SDS011;75581;50.088;19.966;2024-02-26T13:58:21;7.10;;;4.20;;
53483;SDS011;75581;50.088;19.966;2024-02-26T14:00:52;5.50;;;4.00;;
53483;SDS011;75581;50.088;19.966;2024-02-26T14:03:21;5.10;;;4.20;;
53483;SDS011;75581;50.088;19.966;2024-02-26T14:05:51;6.70;;;3.90;;
53483;SDS011;75581;50.088;19.966;2024-02-26T14:08:20;6.10;;;5.00;;
53483;SDS011;75581;50.088;19.966;2024-02-26T14:10:49;7.20;;;4.70;;
53483;SDS011;75581;50.088;19.966;2024-02-26T14:13:18;7.80;;;4.80;;
53483;SDS011;75581;50.088;19.966;2024-02-26T14:15:47;6.40;;;4.80;;
53483;SDS011;75581;50.088;19.966;2024-02-26T14:18:17;6.30;;;5.00;;
53483;SDS011;75581;50.088;19.966;2024-02-26T14:20:48;7.00;;;5.20;;
53483;SDS011;75581;50.088;19.966;2024-02-26T14:23:17;8.20;;;5.10;;
53483;SDS011;75581;50.088;19.966;2024-02-26T14:25:46;6.20;;;5.60;;
53483;SDS011;75581;50.088;19.966;2024-02-26T14:28:15;9.10;;;5.90;;
53483;SDS011;75581;50.088;19.966;2024-02-26T14:30:52;8.10;;;5.70;;
53483;SDS011;75581;50.088;19.966;2024-02-26T14:33:21;9.40;;;6.30;;
53483;SDS011;75581;50.088;19.966;2024-02-26T14:35:51;9.60;;;6.30;;
53483;SDS011;75581;50.088;19.966;2024-02-26T14:38:20;9.60;;;6.60;;
53483;SDS011;75581;50.088;19.966;2024-02-26T14:40:49;8.30;;;7.10;;
53483;SDS011;75581;50.088;19.966;2024-02-26T14:43:18;7.00;;;5.80;;
53483;SDS011;75581;50.088;19.966;2024-02-26T14:45:47;8.10;;;7.10;;
53483;SDS011;75581;50.088;19.966;2024-02-26T14:48:16;12.10;;;6.70;;
53483;SDS011;75581;50.088;19.966;2024-02-26T14:50:46;10.50;;;7.40;;